sensor_id;sensor_type;location;lat;lon;timestamp;pressure;altitude;pressure_sealevel;temperature;humidity
53659;BME280;41524;35.624;139.698;2023-04-15T00:00:16;101100.00;;;14.66;61.97
53659;BME280;41524;35.624;139.698;2023-04-15T00:05:10;101097.00;;;14.16;62.72
53659;BME280;41524;35.624;139.698;2023-04-15T00:10:20;101093.00;;;13.14;64.83
53659;BME280;41524;35.624;139.698;2023-04-15T00:15:16;101089.00;;;13.99;62.46
53659;BME280;41524;35.624;139.698;2023-04-15T00:20:16;101080.00;;;13.41;63.86
53659;BME280;41524;35.624;139.698;2023-04-15T00:25:16;101077.00;;;14.51;63.56
53659;BME280;41524;35.624;139.698;2023-04-15T00:30:15;101079.00;;;13.83;65.42
53659;BME280;41524;35.624;139.698;2023-04-15T00:35:11;101079.00;;;13.80;65.04
53659;BME280;41524;35.624;139.698;2023-04-15T00:40:12;101081.00;;;13.79;65.71
53659;BME280;41524;35.624;139.698;2023-04-15T00:45:11;101083.00;;;13.99;63.71
53659;BME280;41524;35.624;139.698;2023-04-15T00:50:16;101081.00;;;14.19;63.93
53659;BME280;41524;35.624;139.698;2023-04-15T00:55:11;101082.00;;;14.01;64.64
53659;BME280;41524;35.624;139.698;2023-04-15T01:00:12;101093.00;;;13.15;65.84
53659;BME280;41524;35.624;139.698;2023-04-15T01:05:11;101096.00;;;13.74;65.67
53659;BME280;41524;35.624;139.698;2023-04-15T01:10:20;101089.00;;;13.61;66.56
53659;BME280;41524;35.624;139.698;2023-04-15T01:15:12;101057.00;;;13.52;66.51
53659;BME280;41524;35.624;139.698;2023-04-15T01:20:11;101032.00;;;14.32;65.18
53659;BME280;41524;35.624;139.698;2023-04-15T01:25:19;101013.00;;;13.66;66.04
53659;BME280;41524;35.624;139.698;2023-04-15T01:30:11;101003.00;;;14.27;66.15
53659;BME280;41524;35.624;139.698;2023-04-15T01:35:16;100996.00;;;13.84;64.07
53659;BME280;41524;35.624;139.698;2023-04-15T01:40:10;100978.00;;;13.26;66.15
53659;BME280;41524;35.624;139.698;2023-04-15T01:45:20;100950.00;;;12.78;67.54
53659;BME280;41524;35.624;139.698;2023-04-15T01:50:15;100939.00;;;13.21;67.62
53659;BME280;41524;35.624;139.698;2023-04-15T01:55:11;100966.00;;;14.29;64.47
53659;BME280;41524;35.624;139.698;2023-04-15T02:00:11;100956.00;;;15.09;62.83
53659;BME280;41524;35.624;139.698;2023-04-15T02:05:11;100941.00;;;14.60;63.88
53659;BME280;41524;35.624;139.698;2023-04-15T02:10:11;100961.00;;;13.76;65.25
53659;BME280;41524;35.624;139.698;2023-04-15T02:15:15;100967.00;;;13.25;68.01
53659;BME280;41524;35.624;139.698;2023-04-15T02:20:20;100945.00;;;13.03;68.16
53659;BME280;41524;35.624;139.698;2023-04-15T02:25:11;100934.00;;;12.54;69.47
53659;BME280;41524;35.624;139.698;2023-04-15T02:30:10;100924.00;;;12.19;70.54
53659;BME280;41524;35.624;139.698;2023-04-15T02:35:11;100915.00;;;12.95;69.27
53659;BME280;41524;35.624;139.698;2023-04-15T02:40:16;100901.00;;;13.22;68.92
53659;BME280;41524;35.624;139.698;2023-04-15T02:45:12;100879.00;;;14.00;67.16
53659;BME280;41524;35.624;139.698;2023-04-15T02:50:17;100869.00;;;12.77;70.38
53659;BME280;41524;35.624;139.698;2023-04-15T02:55:16;100830.00;;;13.94;68.93
53659;BME280;41524;35.624;139.698;2023-04-15T03:00:12;100822.00;;;12.75;71.62
53659;BME280;41524;35.624;139.698;2023-04-15T03:05:17;100796.00;;;13.86;67.74
53659;BME280;41524;35.624;139.698;2023-04-15T03:10:11;100796.00;;;13.72;67.82
53659;BME280;41524;35.624;139.698;2023-04-15T03:15:11;100790.00;;;13.88;67.73
53659;BME280;41524;35.624;139.698;2023-04-15T03:20:17;100777.00;;;13.42;70.18
53659;BME280;41524;35.624;139.698;2023-04-15T03:25:19;100758.00;;;13.87;67.33
53659;BME280;41524;35.624;139.698;2023-04-15T03:30:11;100755.00;;;13.69;70.07
53659;BME280;41524;35.624;139.698;2023-04-15T03:35:18;100755.00;;;11.96;75.81
53659;BME280;41524;35.624;139.698;2023-04-15T03:40:12;100731.00;;;13.25;73.01
53659;BME280;41524;35.624;139.698;2023-04-15T03:45:12;100725.00;;;11.25;78.54
53659;BME280;41524;35.624;139.698;2023-04-15T03:50:15;100718.00;;;10.74;79.50
53659;BME280;41524;35.624;139.698;2023-04-15T03:55:11;100682.00;;;10.93;79.16
53659;BME280;41524;35.624;139.698;2023-04-15T04:00:13;100675.00;;;12.11;72.49
53659;BME280;41524;35.624;139.698;2023-04-15T04:05:13;100658.00;;;12.94;68.70
53659;BME280;41524;35.624;139.698;2023-04-15T04:10:11;100631.00;;;10.93;75.48
53659;BME280;41524;35.624;139.698;2023-04-15T04:15:11;100650.00;;;12.58;70.60
53659;BME280;41524;35.624;139.698;2023-04-15T04:20:16;100642.00;;;13.41;69.02
53659;BME280;41524;35.624;139.698;2023-04-15T04:25:11;100631.00;;;12.83;78.89
53659;BME280;41524;35.624;139.698;2023-04-15T04:30:16;100604.00;;;12.39;73.98
53659;BME280;41524;35.624;139.698;2023-04-15T04:35:15;100575.00;;;10.63;79.63
53659;BME280;41524;35.624;139.698;2023-04-15T04:40:11;100548.00;;;11.30;78.37
53659;BME280;41524;35.624;139.698;2023-04-15T04:45:16;100533.00;;;12.25;76.99
53659;BME280;41524;35.624;139.698;2023-04-15T04:50:16;100528.00;;;11.84;77.55
53659;BME280;41524;35.624;139.698;2023-04-15T04:55:17;100549.00;;;11.62;76.68
53659;BME280;41524;35.624;139.698;2023-04-15T05:00:16;100539.00;;;12.82;75.53
53659;BME280;41524;35.624;139.698;2023-04-15T05:05:15;100516.00;;;11.56;79.99
53659;BME280;41524;35.624;139.698;2023-04-15T05:10:15;100487.00;;;12.17;75.51
53659;BME280;41524;35.624;139.698;2023-04-15T05:15:16;100459.00;;;13.00;75.33
53659;BME280;41524;35.624;139.698;2023-04-15T05:20:16;100468.00;;;12.88;75.47
53659;BME280;41524;35.624;139.698;2023-04-15T05:25:11;100448.00;;;12.56;77.35
53659;BME280;41524;35.624;139.698;2023-04-15T05:30:12;100447.00;;;11.99;77.98
53659;BME280;41524;35.624;139.698;2023-04-15T05:35:11;100443.00;;;12.48;77.58
53659;BME280;41524;35.624;139.698;2023-04-15T05:40:11;100422.00;;;10.60;84.14
53659;BME280;41524;35.624;139.698;2023-04-15T05:45:19;100429.00;;;13.89;74.48
53659;BME280;41524;35.624;139.698;2023-04-15T05:50:12;100456.00;;;13.32;75.03
53659;BME280;41524;35.624;139.698;2023-04-15T05:55:11;100432.00;;;12.37;78.24
53659;BME280;41524;35.624;139.698;2023-04-15T06:00:11;100407.00;;;12.82;77.76
53659;BME280;41524;35.624;139.698;2023-04-15T06:05:15;100403.00;;;13.07;76.54
53659;BME280;41524;35.624;139.698;2023-04-15T06:10:16;100395.00;;;11.15;81.62
53659;BME280;41524;35.624;139.698;2023-04-15T06:15:12;100371.00;;;10.65;83.69
53659;BME280;41524;35.624;139.698;2023-04-15T06:20:13;100349.00;;;12.09;79.59
53659;BME280;41524;35.624;139.698;2023-04-15T06:25:10;100331.00;;;11.26;82.71
53659;BME280;41524;35.624;139.698;2023-04-15T06:30:16;100318.00;;;11.25;83.89
53659;BME280;41524;35.624;139.698;2023-04-15T06:35:15;100312.00;;;10.52;86.17
53659;BME280;41524;35.624;139.698;2023-04-15T06:40:13;100301.00;;;12.20;81.17
53659;BME280;41524;35.624;139.698;2023-04-15T06:45:17;100286.00;;;12.27;79.33
53659;BME280;41524;35.624;139.698;2023-04-15T06:50:16;100270.00;;;12.22;79.95
53659;BME280;41524;35.624;139.698;2023-04-15T06:55:11;100247.00;;;13.08;75.77
53659;BME280;41524;35.624;139.698;2023-04-15T07:00:14;100239.00;;;12.50;78.36
53659;BME280;41524;35.624;139.698;2023-04-15T07:05:16;100230.00;;;12.50;78.46
53659;BME280;41524;35.624;139.698;2023-04-15T07:10:16;100212.00;;;10.67;83.83
53659;BME280;41524;35.624;139.698;2023-04-15T07:15:11;100199.00;;;13.45;75.47
53659;BME280;41524;35.624;139.698;2023-04-15T07:20:15;100188.00;;;14.00;73.92
53659;BME280;41524;35.624;139.698;2023-04-15T07:25:18;100187.00;;;14.42;72.65
53659;BME280;41524;35.624;139.698;2023-04-15T07:30:12;100180.00;;;12.80;76.32
53659;BME280;41524;35.624;139.698;2023-04-15T07:35:15;100168.00;;;13.63;74.66
53659;BME280;41524;35.624;139.698;2023-04-15T07:40:15;100155.00;;;13.72;73.82
53659;BME280;41524;35.624;139.698;2023-04-15T07:45:15;100129.00;;;13.64;73.76
53659;BME280;41524;35.624;139.698;2023-04-15T07:50:14;100113.00;;;14.06;72.69
53659;BME280;41524;35.624;139.698;2023-04-15T07:55:11;100094.00;;;13.34;74.32
53659;BME280;41524;35.624;139.698;2023-04-15T08:00:21;100078.00;;;12.55;76.99
53659;BME280;41524;35.624;139.698;2023-04-15T08:05:12;100066.00;;;13.61;74.25
53659;BME280;41524;35.624;139.698;2023-04-15T08:10:11;100053.00;;;13.21;75.79
53659;BME280;41524;35.624;139.698;2023-04-15T08:15:16;100031.00;;;13.56;75.09
53659;BME280;41524;35.624;139.698;2023-04-15T08:20:10;100015.00;;;13.59;73.87
53659;BME280;41524;35.624;139.698;2023-04-15T08:25:15;100008.00;;;13.90;74.32
53659;BME280;41524;35.624;139.698;2023-04-15T08:30:10;100018.00;;;13.61;74.87
53659;BME280;41524;35.624;139.698;2023-04-15T08:35:12;100022.00;;;13.17;75.56
53659;BME280;41524;35.624;139.698;2023-04-15T08:40:17;100034.00;;;12.75;76.48
53659;BME280;41524;35.624;139.698;2023-04-15T08:45:15;100034.00;;;13.22;75.77
53659;BME280;41524;35.624;139.698;2023-04-15T08:50:22;100028.00;;;12.84;77.30
53659;BME280;41524;35.624;139.698;2023-04-15T08:55:12;99998.00;;;12.74;77.44
53659;BME280;41524;35.624;139.698;2023-04-15T09:00:16;99990.00;;;13.23;76.50
53659;BME280;41524;35.624;139.698;2023-04-15T09:05:15;99981.00;;;13.15;76.16
53659;BME280;41524;35.624;139.698;2023-04-15T09:10:11;99947.00;;;13.09;76.57
53659;BME280;41524;35.624;139.698;2023-04-15T09:15:16;99939.00;;;13.28;76.39
53659;BME280;41524;35.624;139.698;2023-04-15T09:20:17;99943.00;;;12.65;77.76
53659;BME280;41524;35.624;139.698;2023-04-15T09:25:40;99920.00;;;12.88;77.39
53659;BME280;41524;35.624;139.698;2023-04-15T09:30:16;99906.00;;;12.93;77.13
53659;BME280;41524;35.624;139.698;2023-04-15T09:35:13;99909.00;;;13.70;75.83
53659;BME280;41524;35.624;139.698;2023-04-15T09:40:13;99916.00;;;12.79;77.06
53659;BME280;41524;35.624;139.698;2023-04-15T09:45:17;99904.00;;;13.17;75.84
53659;BME280;41524;35.624;139.698;2023-04-15T09:50:11;99897.00;;;12.74;77.43
53659;BME280;41524;35.624;139.698;2023-04-15T09:55:18;99883.00;;;12.19;78.48
53659;BME280;41524;35.624;139.698;2023-04-15T10:00:21;99881.00;;;12.70;77.97
53659;BME280;41524;35.624;139.698;2023-04-15T10:05:12;99866.00;;;13.10;76.46
53659;BME280;41524;35.624;139.698;2023-04-15T10:10:12;99891.00;;;12.93;77.23
53659;BME280;41524;35.624;139.698;2023-04-15T10:15:14;99901.00;;;11.80;80.52
53659;BME280;41524;35.624;139.698;2023-04-15T10:20:18;99889.00;;;12.50;78.58
53659;BME280;41524;35.624;139.698;2023-04-15T10:25:17;99892.00;;;12.50;78.52
53659;BME280;41524;35.624;139.698;2023-04-15T10:30:11;99891.00;;;12.64;78.13
53659;BME280;41524;35.624;139.698;2023-04-15T10:35:11;99888.00;;;12.23;79.22
53659;BME280;41524;35.624;139.698;2023-04-15T10:40:26;99863.00;;;13.00;77.42
53659;BME280;41524;35.624;139.698;2023-04-15T10:45:17;99857.00;;;12.16;79.05
53659;BME280;41524;35.624;139.698;2023-04-15T10:50:16;99870.00;;;12.91;76.83
53659;BME280;41524;35.624;139.698;2023-04-15T10:55:25;99875.00;;;12.44;77.46
53659;BME280;41524;35.624;139.698;2023-04-15T11:00:17;99876.00;;;11.88;79.42
53659;BME280;41524;35.624;139.698;2023-04-15T11:05:20;99839.00;;;12.64;78.05
53659;BME280;41524;35.624;139.698;2023-04-15T11:11:13;99839.00;;;12.54;77.53
53659;BME280;41524;35.624;139.698;2023-04-15T11:15:32;99831.00;;;12.38;77.20
53659;BME280;41524;35.624;139.698;2023-04-15T11:20:17;99826.00;;;12.23;77.76
53659;BME280;41524;35.624;139.698;2023-04-15T11:25:25;99853.00;;;11.98;78.44
53659;BME280;41524;35.624;139.698;2023-04-15T11:30:20;99850.00;;;11.95;77.79
53659;BME280;41524;35.624;139.698;2023-04-15T11:35:21;99835.00;;;12.42;77.19
53659;BME280;41524;35.624;139.698;2023-04-15T11:40:11;99825.00;;;12.56;76.40
53659;BME280;41524;35.624;139.698;2023-04-15T11:45:16;99792.00;;;12.79;75.91
53659;BME280;41524;35.624;139.698;2023-04-15T11:50:19;99801.00;;;12.67;75.81
53659;BME280;41524;35.624;139.698;2023-04-15T11:55:12;99792.00;;;11.88;77.84
53659;BME280;41524;35.624;139.698;2023-04-15T12:00:22;99793.00;;;11.71;78.64
53659;BME280;41524;35.624;139.698;2023-04-15T12:05:13;99805.00;;;12.19;78.20
53659;BME280;41524;35.624;139.698;2023-04-15T12:10:12;99790.00;;;11.88;78.48
53659;BME280;41524;35.624;139.698;2023-04-15T12:15:15;99785.00;;;11.65;78.72
53659;BME280;41524;35.624;139.698;2023-04-15T12:20:11;99771.00;;;11.57;79.31
53659;BME280;41524;35.624;139.698;2023-04-15T12:25:11;99759.00;;;13.08;75.69
53659;BME280;41524;35.624;139.698;2023-04-15T12:30:17;99759.00;;;12.80;75.67
53659;BME280;41524;35.624;139.698;2023-04-15T12:35:16;99748.00;;;12.61;75.94
53659;BME280;41524;35.624;139.698;2023-04-15T12:40:11;99723.00;;;12.07;77.09
53659;BME280;41524;35.624;139.698;2023-04-15T12:45:10;99721.00;;;12.70;75.94
53659;BME280;41524;35.624;139.698;2023-04-15T12:50:16;99732.00;;;12.05;77.72
53659;BME280;41524;35.624;139.698;2023-04-15T12:55:11;99701.00;;;11.73;77.93
53659;BME280;41524;35.624;139.698;2023-04-15T13:00:13;99671.00;;;12.19;77.15
53659;BME280;41524;35.624;139.698;2023-04-15T13:05:16;99657.00;;;12.81;74.97
53659;BME280;41524;35.624;139.698;2023-04-15T13:10:19;99654.00;;;12.02;77.60
53659;BME280;41524;35.624;139.698;2023-04-15T13:15:11;99626.00;;;11.99;76.98
53659;BME280;41524;35.624;139.698;2023-04-15T13:20:12;99615.00;;;12.64;75.51
53659;BME280;41524;35.624;139.698;2023-04-15T13:25:10;99597.00;;;11.94;76.71
53659;BME280;41524;35.624;139.698;2023-04-15T13:30:16;99606.00;;;12.88;74.56
53659;BME280;41524;35.624;139.698;2023-04-15T13:35:12;99606.00;;;12.23;75.73
53659;BME280;41524;35.624;139.698;2023-04-15T13:40:16;99598.00;;;11.89;77.31
53659;BME280;41524;35.624;139.698;2023-04-15T13:45:11;99578.00;;;12.49;75.59
53659;BME280;41524;35.624;139.698;2023-04-15T13:50:11;99575.00;;;12.59;75.19
53659;BME280;41524;35.624;139.698;2023-04-15T13:55:11;99573.00;;;11.58;77.86
53659;BME280;41524;35.624;139.698;2023-04-15T14:00:12;99568.00;;;12.62;75.49
53659;BME280;41524;35.624;139.698;2023-04-15T14:05:13;99568.00;;;12.32;76.24
53659;BME280;41524;35.624;139.698;2023-04-15T14:10:16;99524.00;;;12.54;75.12
53659;BME280;41524;35.624;139.698;2023-04-15T14:15:11;99500.00;;;12.08;75.95
53659;BME280;41524;35.624;139.698;2023-04-15T14:20:20;99509.00;;;12.15;76.54
53659;BME280;41524;35.624;139.698;2023-04-15T14:25:16;99488.00;;;12.48;75.12
53659;BME280;41524;35.624;139.698;2023-04-15T14:30:11;99519.00;;;12.30;75.36
53659;BME280;41524;35.624;139.698;2023-04-15T14:35:10;99523.00;;;12.17;75.25
53659;BME280;41524;35.624;139.698;2023-04-15T14:40:17;99492.00;;;12.75;74.44
53659;BME280;41524;35.624;139.698;2023-04-15T14:45:16;99515.00;;;12.63;74.84
53659;BME280;41524;35.624;139.698;2023-04-15T14:50:11;99541.00;;;12.27;75.89
53659;BME280;41524;35.624;139.698;2023-04-15T14:55:16;99535.00;;;12.11;76.32
53659;BME280;41524;35.624;139.698;2023-04-15T15:00:28;99517.00;;;12.88;75.04
53659;BME280;41524;35.624;139.698;2023-04-15T15:05:16;99483.00;;;12.98;74.27
53659;BME280;41524;35.624;139.698;2023-04-15T15:10:15;99497.00;;;12.22;76.41
53659;BME280;41524;35.624;139.698;2023-04-15T15:15:11;99505.00;;;12.15;76.77
53659;BME280;41524;35.624;139.698;2023-04-15T15:20:15;99508.00;;;12.79;75.86
53659;BME280;41524;35.624;139.698;2023-04-15T15:25:20;99516.00;;;12.25;76.51
53659;BME280;41524;35.624;139.698;2023-04-15T15:30:12;99516.00;;;12.65;75.28
53659;BME280;41524;35.624;139.698;2023-04-15T15:35:22;99502.00;;;11.95;77.21
53659;BME280;41524;35.624;139.698;2023-04-15T15:40:18;99480.00;;;12.91;75.74
53659;BME280;41524;35.624;139.698;2023-04-15T15:45:16;99477.00;;;12.16;77.05
53659;BME280;41524;35.624;139.698;2023-04-15T15:50:13;99482.00;;;13.19;74.28
53659;BME280;41524;35.624;139.698;2023-04-15T15:55:11;99481.00;;;13.29;73.60
53659;BME280;41524;35.624;139.698;2023-04-15T16:00:17;99431.00;;;12.52;76.22
53659;BME280;41524;35.624;139.698;2023-04-15T16:05:11;99397.00;;;10.58;82.72
53659;BME280;41524;35.624;139.698;2023-04-15T16:10:11;99396.00;;;13.59;73.86
53659;BME280;41524;35.624;139.698;2023-04-15T16:15:13;99382.00;;;12.75;75.17
53659;BME280;41524;35.624;139.698;2023-04-15T16:20:14;99391.00;;;12.89;74.81
53659;BME280;41524;35.624;139.698;2023-04-15T16:25:11;99377.00;;;13.20;74.13
53659;BME280;41524;35.624;139.698;2023-04-15T16:30:16;99367.00;;;13.25;74.14
53659;BME280;41524;35.624;139.698;2023-04-15T16:35:11;99366.00;;;12.49;75.90
53659;BME280;41524;35.624;139.698;2023-04-15T16:40:11;99380.00;;;13.10;74.46
53659;BME280;41524;35.624;139.698;2023-04-15T16:45:13;99351.00;;;13.13;74.18
53659;BME280;41524;35.624;139.698;2023-04-15T16:50:11;99324.00;;;12.82;75.64
53659;BME280;41524;35.624;139.698;2023-04-15T16:55:14;99319.00;;;13.28;73.27
53659;BME280;41524;35.624;139.698;2023-04-15T17:00:11;99288.00;;;12.24;76.40
53659;BME280;41524;35.624;139.698;2023-04-15T17:05:15;99265.00;;;13.25;74.74
53659;BME280;41524;35.624;139.698;2023-04-15T17:10:11;99240.00;;;12.30;77.78
53659;BME280;41524;35.624;139.698;2023-04-15T17:15:11;99232.00;;;12.93;75.67
53659;BME280;41524;35.624;139.698;2023-04-15T17:20:10;99225.00;;;12.73;75.27
53659;BME280;41524;35.624;139.698;2023-04-15T17:25:15;99210.00;;;12.32;77.48
53659;BME280;41524;35.624;139.698;2023-04-15T17:30:11;99197.00;;;12.73;75.54
53659;BME280;41524;35.624;139.698;2023-04-15T17:35:13;99171.00;;;12.08;76.49
53659;BME280;41524;35.624;139.698;2023-04-15T17:40:15;99162.00;;;11.72;78.19
53659;BME280;41524;35.624;139.698;2023-04-15T17:45:15;99189.00;;;11.50;79.54
53659;BME280;41524;35.624;139.698;2023-04-15T17:50:10;99164.00;;;12.69;76.08
53659;BME280;41524;35.624;139.698;2023-04-15T17:55:10;99142.00;;;12.94;74.47
53659;BME280;41524;35.624;139.698;2023-04-15T18:00:18;99158.00;;;12.00;77.24
53659;BME280;41524;35.624;139.698;2023-04-15T18:05:11;99196.00;;;10.96;81.82
53659;BME280;41524;35.624;139.698;2023-04-15T18:10:12;99234.00;;;11.73;79.50
53659;BME280;41524;35.624;139.698;2023-04-15T18:15:12;99255.00;;;12.04;79.03
53659;BME280;41524;35.624;139.698;2023-04-15T18:20:11;99253.00;;;11.67;80.00
53659;BME280;41524;35.624;139.698;2023-04-15T18:25:11;99254.00;;;12.76;76.55
53659;BME280;41524;35.624;139.698;2023-04-15T18:30:11;99242.00;;;12.73;76.87
53659;BME280;41524;35.624;139.698;2023-04-15T18:35:11;99260.00;;;12.86;75.90
53659;BME280;41524;35.624;139.698;2023-04-15T18:40:14;99292.00;;;13.15;74.41
53659;BME280;41524;35.624;139.698;2023-04-15T18:45:12;99258.00;;;12.77;75.62
53659;BME280;41524;35.624;139.698;2023-04-15T18:50:11;99284.00;;;13.52;73.83
53659;BME280;41524;35.624;139.698;2023-04-15T18:55:10;99273.00;;;13.64;72.76
53659;BME280;41524;35.624;139.698;2023-04-15T19:00:16;99260.00;;;14.32;71.05
53659;BME280;41524;35.624;139.698;2023-04-15T19:05:11;99263.00;;;12.30;77.38
53659;BME280;41524;35.624;139.698;2023-04-15T19:10:10;99279.00;;;12.31;76.76
53659;BME280;41524;35.624;139.698;2023-04-15T19:15:11;99260.00;;;11.57;78.57
53659;BME280;41524;35.624;139.698;2023-04-15T19:20:12;99261.00;;;12.34;76.49
53659;BME280;41524;35.624;139.698;2023-04-15T19:25:11;99304.00;;;12.16;77.97
53659;BME280;41524;35.624;139.698;2023-04-15T19:30:11;99283.00;;;12.52;76.74
53659;BME280;41524;35.624;139.698;2023-04-15T19:35:11;99268.00;;;13.35;73.50
53659;BME280;41524;35.624;139.698;2023-04-15T19:40:11;99242.00;;;13.39;73.69
53659;BME280;41524;35.624;139.698;2023-04-15T19:45:11;99211.00;;;13.11;73.28
53659;BME280;41524;35.624;139.698;2023-04-15T19:50:13;99202.00;;;12.40;75.82
53659;BME280;41524;35.624;139.698;2023-04-15T19:55:16;99173.00;;;12.93;75.20
53659;BME280;41524;35.624;139.698;2023-04-15T20:00:12;99141.00;;;11.73;79.80
53659;BME280;41524;35.624;139.698;2023-04-15T20:05:11;99159.00;;;13.10;75.02
53659;BME280;41524;35.624;139.698;2023-04-15T20:10:13;99163.00;;;13.20;75.42
53659;BME280;41524;35.624;139.698;2023-04-15T20:15:15;99153.00;;;11.02;82.25
53659;BME280;41524;35.624;139.698;2023-04-15T20:20:11;99177.00;;;12.55;78.02
53659;BME280;41524;35.624;139.698;2023-04-15T20:25:21;99167.00;;;12.07;79.16
53659;BME280;41524;35.624;139.698;2023-04-15T20:30:11;99160.00;;;13.16;76.22
53659;BME280;41524;35.624;139.698;2023-04-15T20:35:11;99159.00;;;13.15;75.42
53659;BME280;41524;35.624;139.698;2023-04-15T20:40:12;99126.00;;;12.52;76.44
53659;BME280;41524;35.624;139.698;2023-04-15T20:45:15;99152.00;;;12.30;78.78
53659;BME280;41524;35.624;139.698;2023-04-15T20:50:15;99177.00;;;11.70;80.91
53659;BME280;41524;35.624;139.698;2023-04-15T20:55:16;99157.00;;;13.76;73.73
53659;BME280;41524;35.624;139.698;2023-04-15T21:00:11;99163.00;;;12.75;77.29
53659;BME280;41524;35.624;139.698;2023-04-15T21:05:10;99161.00;;;13.06;75.99
53659;BME280;41524;35.624;139.698;2023-04-15T21:10:11;99099.00;;;13.64;73.80
53659;BME280;41524;35.624;139.698;2023-04-15T21:15:12;99118.00;;;11.47;82.72
53659;BME280;41524;35.624;139.698;2023-04-15T21:20:11;99120.00;;;11.85;80.41
53659;BME280;41524;35.624;139.698;2023-04-15T21:25:11;99117.00;;;11.65;81.31
53659;BME280;41524;35.624;139.698;2023-04-15T21:30:16;99138.00;;;14.55;73.64
53659;BME280;41524;35.624;139.698;2023-04-15T21:35:10;99130.00;;;13.32;76.41
53659;BME280;41524;35.624;139.698;2023-04-15T21:40:11;99125.00;;;14.25;74.74
53659;BME280;41524;35.624;139.698;2023-04-15T21:45:11;99117.00;;;12.92;77.71
53659;BME280;41524;35.624;139.698;2023-04-15T21:50:12;99110.00;;;14.22;74.59
53659;BME280;41524;35.624;139.698;2023-04-15T21:55:15;99100.00;;;13.81;74.80
53659;BME280;41524;35.624;139.698;2023-04-15T22:00:17;99101.00;;;12.10;81.91
53659;BME280;41524;35.624;139.698;2023-04-15T22:05:16;99109.00;;;13.57;77.38
53659;BME280;41524;35.624;139.698;2023-04-15T22:10:11;99141.00;;;13.95;77.19
53659;BME280;41524;35.624;139.698;2023-04-15T22:15:11;99138.00;;;13.94;76.90
53659;BME280;41524;35.624;139.698;2023-04-15T22:20:11;99158.00;;;14.23;76.61
53659;BME280;41524;35.624;139.698;2023-04-15T22:25:11;99138.00;;;15.15;74.51
53659;BME280;41524;35.624;139.698;2023-04-15T22:30:12;99150.00;;;15.39;73.68
53659;BME280;41524;35.624;139.698;2023-04-15T22:35:17;99150.00;;;14.67;76.69
53659;BME280;41524;35.624;139.698;2023-04-15T22:40:12;99155.00;;;15.63;73.70
53659;BME280;41524;35.624;139.698;2023-04-15T22:45:11;99181.00;;;16.41;71.66
53659;BME280;41524;35.624;139.698;2023-04-15T22:50:11;99161.00;;;14.87;74.75
53659;BME280;41524;35.624;139.698;2023-04-15T22:55:12;99172.00;;;13.78;77.80
53659;BME280;41524;35.624;139.698;2023-04-15T23:00:21;99162.00;;;13.75;78.48
53659;BME280;41524;35.624;139.698;2023-04-15T23:05:11;99186.00;;;14.42;76.78
53659;BME280;41524;35.624;139.698;2023-04-15T23:10:11;99203.00;;;14.98;75.15
53659;BME280;41524;35.624;139.698;2023-04-15T23:15:11;99199.00;;;14.65;75.72
53659;BME280;41524;35.624;139.698;2023-04-15T23:20:12;99217.00;;;14.64;75.34
53659;BME280;41524;35.624;139.698;2023-04-15T23:25:10;99224.00;;;14.98;73.83
53659;BME280;41524;35.624;139.698;2023-04-15T23:30:13;99225.00;;;14.57;74.79
53659;BME280;41524;35.624;139.698;2023-04-15T23:35:16;99227.00;;;15.07;73.47
53659;BME280;41524;35.624;139.698;2023-04-15T23:40:11;99233.00;;;15.09;73.00
53659;BME280;41524;35.624;139.698;2023-04-15T23:45:21;99234.00;;;14.40;74.79
53659;BME280;41524;35.624;139.698;2023-04-15T23:50:15;99232.00;;;15.05;73.64
53659;BME280;41524;35.624;139.698;2023-04-15T23:55:11;99238.00;;;14.68;73.90
